Carson City, Michigan
Current Conditions -  °F | °C
As of 4:32 PM on Thursday 23 Oct 2014 (Local Time) from KAMN Reporting Station
Clear Clear  
Wind Chill: 12°   Ceiling: Unl
Heat Index: 12°   Visibility: 10mi
Dew Point:   Wind: 6mph
Humidity: 52%   Direction: 180°S
Pressure: 30.14"   Gusts: NA
Location:  43.18°N, 84.85°W
Report Text: KAMN 232032Z AUTO 18005KT 10SM CLR 12/03 A3014 RMK AO2 T01240029
Loading
Personal Weather Stations






























Interactive Weather Map
Tropical Storm Tracking
New forecast layout! Learn more

10-Day Weather Forecast

Advertisements
Track Severe Weather on mobile